Flight Track Log - Related Links

Times and Time Zones

All times are in EST time to prevent confusion due to time zone crossing. See the FLG4262 flight status page for this flight to view local times or setup timezone preferences in your user account.

Time Position Orientation Groundspeed Altitude Reporting Facility
EST Latitude Longitude Course Direction KTS MPH feet Rate Location/Type
Tue 04:00:15 PM 42.2297 -83.3339 31° Northeast 167 192 1,100  Level Cleveland Center
Tue 04:00:27 PM 42.2386 -83.3267 31° Northeast 164 189 1,700 2,466 Climbing Cleveland Center
Tue 04:01:28 PM 42.2797 -83.2817 39° Northeast 209 241 4,100 2,400 Climbing Cleveland Center
Tue 04:02:12 PM 42.3128 -83.2422 41° Northeast 224 258 5,900 2,516 Climbing Cleveland Center
Tue 04:02:30 PM 42.3267 -83.2175 53° Northeast 264 304 6,700 2,476 Climbing Cleveland Center
Tue 04:03:15 PM 42.3242 -83.1439 93° East 279 321 8,500 2,754 Climbing Cleveland Center
Tue 04:03:31 PM 42.3203 -83.1094 99° East 305 351 9,500 1,452 Climbing Cleveland Center
Tue 04:04:17 PM 42.3094 -83.0297 100° East 302 348 10,000 278 Climbing Cleveland Center
Tue 04:05:19 PM 42.2969 -82.9056 98° East 327 376 10,000 919 Level Cleveland Center
Tue 04:06:21 PM 42.3125 -82.7856 80° East 326 375 11,900 1,887 Climbing Cleveland Center
Tue 04:07:23 PM 42.3325 -82.6592 78° East 339 390 13,900 2,032 Climbing Cleveland Center
Tue 04:08:25 PM 42.3583 -82.5044 77° East 350 403 16,100 1,790 Climbing Cleveland Center
Tue 04:09:27 PM 42.3642 -82.3672 87° East 374 430 17,600 1,210 Climbing Cleveland Center
Tue 04:10:29 PM 42.3589 -82.2225 93° East 386 444 18,600 1,210 Climbing Cleveland Center
Tue 04:11:31 PM 42.3511 -82.0689 94° East 384 442 20,100 1,210 Climbing Cleveland Center
Tue 04:12:33 PM 42.3456 -81.9206 93° East 389 448 21,100 968 Climbing Cleveland Center
Tue 04:13:35 PM 42.3378 -81.7681 94° East 399 459 22,100 1,056 Climbing Cleveland Center
Tue 04:14:38 PM 42.3314 -81.6128 93° East 407 468 23,300 912 Climbing Cleveland Center
Tue 04:15:40 PM 42.3233 -81.4578 94° East 410 472 24,000 726 Climbing Cleveland Center
Tue 04:16:42 PM 42.3142 -81.2711 94° East 419 482 24,800 726 Climbing Cleveland Center
Tue 04:17:44 PM 42.3069 -81.1075 93° East 429 494 25,500 677 Climbing Cleveland Center
Tue 04:18:46 PM 42.2978 -80.9436 94° East 431 496 26,200 629 Climbing Cleveland Center
Tue 04:19:48 PM 42.2894 -80.7781 94° East 436 502 26,800 532 Climbing Cleveland Center
Tue 04:20:50 PM 42.2808 -80.6108 94° East 439 505 27,300 484 Climbing Cleveland Center
Tue 04:21:52 PM 42.2717 -80.4422 94° East 445 512 27,800 484 Climbing Cleveland Center
Tue 04:22:54 PM 42.2628 -80.2719 94° East 450 518 28,300 484 Climbing Cleveland Center
Tue 04:23:56 PM 42.2525 -80.1019 95° East 451 519 28,800 339 Climbing Cleveland Center
Tue 04:24:58 PM 42.2400 -79.9039 95° East 449 517 29,000 97 Climbing Cleveland Center
Tue 04:26:00 PM 42.2283 -79.7317 95° East 461 531 29,000  Level Cleveland Center
Tue 04:27:02 PM 42.2164 -79.5572 95° East 467 537 29,000  Level Cleveland Center
Tue 04:28:05 PM 42.2058 -79.3803 95° East 474 545 29,000 -240 Level Cleveland Center
Tue 04:29:07 PM 42.1931 -79.2017 95° East 479 551 28,500 -484 Descending Cleveland Center
Tue 04:30:09 PM 42.1897 -79.0244 91° East 477 549 28,000 -242 Descending Cleveland Center
Tue 04:31:11 PM 42.1936 -78.8281 88° East 468 539 28,000 -97 Level Cleveland Center
Tue 04:32:13 PM 42.1953 -78.6569 89° East 460 529 27,800 -629 Descending Cleveland Center
Tue 04:33:15 PM 42.1992 -78.4856 88° East 460 529 26,700 -1,210 Descending Cleveland Center
Tue 04:34:17 PM 42.2011 -78.2797 89° East 461 531 25,300 -1,161 Descending Cleveland Center
Tue 04:35:19 PM 42.2036 -78.1100 89° East 458 527 24,300 -968 Descending Cleveland Center
Tue 04:36:21 PM 42.2058 -77.9442 89° East 450 518 23,300 -968 Descending Cleveland Center
Tue 04:37:23 PM 42.2069 -77.7803 89° East 444 511 22,300 -960 Descending Cleveland Center
Tue 04:38:26 PM 42.2092 -77.6200 89° East 437 503 21,300 -1,584 Descending Cleveland Center
Tue 04:39:28 PM 42.2081 -77.4325 90° East 423 487 19,000 -1,935 Descending Cleveland Center
Tue 04:40:30 PM 42.2083 -77.2861 90° East 400 460 17,300 -1,016 Descending Cleveland Center
Tue 04:41:32 PM 42.2094 -77.1478 89° East 377 434 16,900 -1,452 Descending Cleveland Center
Tue 04:42:34 PM 42.2103 -77.0169 89° East 356 410 14,300 -2,661 Descending Cleveland Center
Tue 04:43:36 PM 42.2103 -76.8861 90° East 351 404 11,400 -2,177 Descending Cleveland Center
Tue 04:44:38 PM 42.2103 -76.7447 90° East 316 364 9,800 -1,355 Descending Cleveland Center
Tue 04:45:40 PM 42.1867 -76.6425 107° East 306 352 8,600 -1,452 Descending Cleveland Center
Tue 04:46:42 PM 42.1456 -76.5489 121° Southeast 292 336 6,800 -1,839 Descending Cleveland Center
Tue 04:47:44 PM 42.1000 -76.4503 122° Southeast 286 329 4,800 -1,377 Descending New York Center
Tue 04:48:44 PM 42.0625 -76.3633 120° Southeast 280 322 4,000 -400 Descending New York Center
Tue 04:49:44 PM 42.0411 -76.2833 110° East 262 302 4,000  Level New York Center
Tue 04:50:45 PM 42.0139 -76.1972 113° Southeast 230 265 4,000  Level New York Center
Tue 04:51:45 PM 41.9922 -76.1200 111° Southeast 224 258 4,000  Level New York Center
Tue 04:52:44 PM 41.9708 -76.0431 110° East 219 252 4,000  Level New York Center
Tue 04:53:45 PM 41.9697 -75.9706 91° East 208 239 4,000  Level New York Center
Tue 04:54:44 PM 41.9733 -75.8897 87° East 208 239 4,000  Level New York Center
Tue 04:55:44 PM 42.0153 -75.8344 44° Northeast 186 214 4,000  Level New York Center
Tue 04:56:44 PM 42.0642 -75.8606 338° Northwest 159 183 4,000  Level New York Center
Tue 04:57:44 PM 42.1042 -75.8972 326° Northwest 159 183 4,000  Level New York Center
Tue 04:59:00 PM 42.2000 -75.9667 334° Northwest  Level FlightAware Approximate
Tue 05:06:00 PM 42.2084 -75.9796 334° Northwest  Level Estimated
Tue 05:07:00 PM 42.2084 -75.9796 334° Northwest  Level Estimated
Tue 05:08:00 PM 42.2084 -75.9796 334° Northwest  Level Estimated
Tue 05:09:00 PM 42.2084 -75.9796 334° Northwest  Level Estimated
Tue 05:10:00 PM 42.2084 -75.9796 334° Northwest  Level Estimated
Tue 05:11:00 PM 42.2084 -75.9796 334° Northwest  Level Estimated
Tue 05:12:00 PM 42.2084 -75.9796 334° Northwest  Level Estimated

Login

Don't have an account? Register now (free) for customized features, flight alerts, and more!